createdAt,value
2019-03-01T00:00:34.791Z,46.21
2019-03-01T00:03:04.352Z,46.48
2019-03-01T00:06:15.066Z,47.56
2019-03-01T00:09:31.737Z,47.81
2019-03-01T00:12:40.052Z,47.58
2019-03-01T00:15:48.134Z,47.75
2019-03-01T00:18:51.536Z,47.78
2019-03-01T00:22:23.064Z,47.73
2019-03-01T00:25:32.210Z,47.12
2019-03-01T00:28:30.334Z,47.56
2019-03-01T00:31:43.364Z,47.18
2019-03-01T00:34:50.845Z,46.66
2019-03-01T00:38:16.408Z,46.71
2019-03-01T00:41:06.116Z,47.30
2019-03-01T00:44:22.333Z,47.57
2019-03-01T00:46:51.848Z,48.09
2019-03-01T00:49:21.340Z,48.24
2019-03-01T00:51:50.976Z,47.71
2019-03-01T00:54:20.420Z,47.57
2019-03-01T00:56:49.832Z,47.87
2019-03-01T00:59:19.289Z,47.40
2019-03-01T01:01:48.708Z,47.09
2019-03-01T01:04:18.090Z,47.45
2019-03-01T01:06:47.530Z,47.38
2019-03-01T01:09:17.053Z,47.23
2019-03-01T01:11:46.488Z,47.41
2019-03-01T01:14:15.937Z,47.30
2019-03-01T01:16:45.327Z,47.61
2019-03-01T01:19:14.839Z,47.84
2019-03-01T01:21:44.343Z,48.03
2019-03-01T01:24:13.827Z,47.68
2019-03-01T01:26:43.230Z,48.14
2019-03-01T01:29:12.613Z,48.34
2019-03-01T01:31:42.103Z,48.08
2019-03-01T01:34:11.540Z,48.09
2019-03-01T01:36:40.999Z,48.50
2019-03-01T01:39:10.971Z,48.24
2019-03-01T01:41:40.353Z,48.44
2019-03-01T01:44:09.784Z,48.60
2019-03-01T01:46:39.246Z,48.69
2019-03-01T01:49:08.769Z,48.66
2019-03-01T01:51:38.176Z,48.97
2019-03-01T01:54:07.616Z,49.29
2019-03-01T01:56:37.029Z,49.08
2019-03-01T01:59:06.472Z,49.19
2019-03-01T02:01:35.892Z,49.06
2019-03-01T02:04:05.822Z,48.93
2019-03-01T02:06:35.354Z,48.88
2019-03-01T02:09:14.058Z,48.83
2019-03-01T02:11:43.444Z,48.60
2019-03-01T02:14:12.855Z,48.66
2019-03-01T02:16:42.214Z,48.57
2019-03-01T02:19:11.633Z,47.83
2019-03-01T02:21:41.023Z,47.84
2019-03-01T02:24:10.379Z,47.66
2019-03-01T02:26:39.808Z,47.38
2019-03-01T02:29:09.241Z,47.44
2019-03-01T02:31:40.445Z,47.20
2019-03-01T02:34:09.866Z,46.86
2019-03-01T02:36:39.302Z,46.97
2019-03-01T02:39:09.036Z,47.00
2019-03-01T02:41:38.425Z,46.82
2019-03-01T02:44:07.883Z,47.02
2019-03-01T02:46:37.242Z,47.14
2019-03-01T02:49:06.771Z,47.13
2019-03-01T02:51:36.136Z,47.30
2019-03-01T02:54:05.678Z,47.48
2019-03-01T02:56:35.975Z,47.31
2019-03-01T02:59:05.391Z,47.65
2019-03-01T03:01:34.737Z,47.48
2019-03-01T03:04:04.169Z,47.36
2019-03-01T03:07:01.605Z,47.30
2019-03-01T03:09:30.971Z,47.98
2019-03-01T03:12:00.372Z,47.80
2019-03-01T03:14:29.789Z,47.86
2019-03-01T03:16:59.245Z,48.36
2019-03-01T03:19:28.636Z,48.13
2019-03-01T03:21:58.059Z,47.74
2019-03-01T03:24:27.478Z,47.67
2019-03-01T03:26:56.889Z,47.68
2019-03-01T03:29:26.314Z,47.57
2019-03-01T03:31:55.715Z,47.89
2019-03-01T03:34:25.251Z,47.54
2019-03-01T03:36:54.647Z,47.68
2019-03-01T03:39:24.029Z,47.80
2019-03-01T03:41:53.439Z,47.69
2019-03-01T03:44:22.790Z,47.70
2019-03-01T03:46:52.214Z,47.95
2019-03-01T03:49:21.609Z,47.70
2019-03-01T03:51:50.998Z,47.94
2019-03-01T03:54:20.375Z,47.67
2019-03-01T03:56:49.851Z,47.53
2019-03-01T03:59:19.336Z,47.42
2019-03-01T04:01:48.755Z,47.33
2019-03-01T04:04:18.277Z,47.73
2019-03-01T04:06:47.653Z,48.56
2019-03-01T04:09:17.269Z,48.87
2019-03-01T04:11:46.738Z,48.89
2019-03-01T04:14:16.126Z,49.20
2019-03-01T04:16:45.551Z,49.05
2019-03-01T04:19:14.952Z,49.13
2019-03-01T04:21:44.318Z,49.66
2019-03-01T04:24:13.779Z,49.63
2019-03-01T04:26:43.194Z,49.31
2019-03-01T04:29:12.643Z,49.30
2019-03-01T04:31:42.033Z,49.27
2019-03-01T04:34:11.506Z,49.59
2019-03-01T04:36:41.943Z,49.42
2019-03-01T04:39:11.356Z,49.41
2019-03-01T04:41:40.768Z,49.29
2019-03-01T04:44:10.228Z,49.38
2019-03-01T04:46:39.649Z,49.25
2019-03-01T04:49:09.068Z,49.13
2019-03-01T04:51:40.336Z,49.29
2019-03-01T04:54:09.587Z,49.42
2019-03-01T04:56:39.028Z,49.24
2019-03-01T04:59:08.472Z,49.26
2019-03-01T05:01:37.859Z,49.26
2019-03-01T05:04:07.300Z,48.97
2019-03-01T05:06:36.690Z,49.08
2019-03-01T05:09:07.772Z,48.83
2019-03-01T05:11:37.263Z,48.31
2019-03-01T05:14:06.747Z,48.33
2019-03-01T05:16:36.184Z,48.31
2019-03-01T05:19:05.622Z,48.17
2019-03-01T05:21:35.022Z,47.90
2019-03-01T05:24:04.577Z,48.01
2019-03-01T05:26:34.102Z,48.02
2019-03-01T05:29:03.517Z,47.99
2019-03-01T05:31:32.903Z,47.73
2019-03-01T05:34:02.352Z,47.55
2019-03-01T05:36:31.814Z,47.09
2019-03-01T05:39:01.576Z,46.77
2019-03-01T05:41:31.015Z,46.61
2019-03-01T05:44:00.573Z,45.89
2019-03-01T05:46:30.018Z,45.69
2019-03-01T05:48:59.455Z,45.34
2019-03-01T05:51:28.844Z,44.79
2019-03-01T05:53:58.272Z,44.82
2019-03-01T05:56:27.672Z,44.69
2019-03-01T05:59:10.854Z,44.73
2019-03-01T06:02:27.575Z,44.89
2019-03-01T06:05:00.449Z,44.75
2019-03-01T06:08:16.651Z,44.94
2019-03-01T06:10:52.342Z,44.64
2019-03-01T06:13:55.659Z,44.62
2019-03-01T06:16:56.923Z,44.60
2019-03-01T06:20:07.208Z,44.55
2019-03-01T06:23:23.932Z,44.63
2019-03-01T06:26:33.112Z,44.33
2019-03-01T06:29:32.273Z,44.28
2019-03-01T06:32:35.010Z,44.26
2019-03-01T06:35:38.350Z,44.05
2019-03-01T06:39:03.076Z,43.73
2019-03-01T06:41:59.851Z,43.57
2019-03-01T06:45:07.506Z,43.60
2019-03-01T06:47:48.567Z,43.44
2019-03-01T06:50:44.517Z,43.46
2019-03-01T06:53:13.919Z,43.50
2019-03-01T06:56:00.654Z,43.44
2019-03-01T06:58:35.552Z,43.37
2019-03-01T07:01:14.366Z,43.35
2019-03-01T07:03:45.578Z,43.21
2019-03-01T07:06:15.052Z,43.25
2019-03-01T07:08:44.541Z,43.15
2019-03-01T07:11:14.043Z,43.30
2019-03-01T07:13:43.465Z,42.74
2019-03-01T07:16:12.856Z,42.63
2019-03-01T07:18:42.278Z,42.74
2019-03-01T07:21:11.728Z,42.84
2019-03-01T07:23:41.206Z,42.68
2019-03-01T07:26:10.728Z,42.44
2019-03-01T07:28:40.159Z,42.22
2019-03-01T07:31:09.627Z,41.85
2019-03-01T07:33:39.046Z,41.92
2019-03-01T07:36:08.471Z,42.16
2019-03-01T07:38:37.923Z,41.86
2019-03-01T07:41:07.359Z,41.77
2019-03-01T07:43:36.759Z,41.81
2019-03-01T07:46:06.361Z,41.66
2019-03-01T07:48:35.748Z,41.38
2019-03-01T07:51:05.175Z,41.22
2019-03-01T07:53:36.089Z,41.11
2019-03-01T07:56:05.783Z,41.06
2019-03-01T07:58:35.278Z,40.70
2019-03-01T08:01:05.196Z,41.30
2019-03-01T08:03:34.660Z,41.45
2019-03-01T08:06:04.196Z,41.13
2019-03-01T08:08:34.931Z,40.96
2019-03-01T08:11:04.989Z,41.10
2019-03-01T08:13:34.450Z,41.02
2019-03-01T08:16:03.947Z,41.05
2019-03-01T08:18:33.361Z,41.22
2019-03-01T08:21:06.079Z,41.16
2019-03-01T08:23:35.139Z,41.55
2019-03-01T08:26:05.401Z,41.44
2019-03-01T08:28:34.852Z,41.46
2019-03-01T08:31:04.638Z,41.40
2019-03-01T08:33:34.183Z,41.24
2019-03-01T08:36:05.814Z,41.51
2019-03-01T08:38:34.929Z,41.77
2019-03-01T08:41:04.385Z,42.06
2019-03-01T08:43:35.712Z,41.65
2019-03-01T08:46:05.546Z,41.74
2019-03-01T08:48:36.165Z,41.69
2019-03-01T08:51:05.663Z,41.63
2019-03-01T08:53:35.218Z,41.64
2019-03-01T08:56:04.677Z,41.78
2019-03-01T08:58:34.183Z,41.99
2019-03-01T09:01:08.382Z,42.07
2019-03-01T09:03:43.217Z,42.10
2019-03-01T09:06:12.701Z,42.24
2019-03-01T09:08:42.921Z,41.92
2019-03-01T09:11:13.637Z,42.07
2019-03-01T09:13:43.161Z,42.34
2019-03-01T09:16:12.638Z,42.07
2019-03-01T09:18:42.390Z,42.17
2019-03-01T09:21:12.925Z,42.00
2019-03-01T09:23:43.158Z,42.26
2019-03-01T09:26:12.672Z,42.03
2019-03-01T09:28:42.120Z,42.42
2019-03-01T09:31:11.730Z,42.06
2019-03-01T09:33:41.215Z,41.75
2019-03-01T09:36:18.051Z,40.89
2019-03-01T09:38:45.989Z,40.82
2019-03-01T09:41:15.512Z,41.27
2019-03-01T09:43:44.958Z,40.87
2019-03-01T09:46:14.433Z,40.63
2019-03-01T09:48:45.593Z,40.88
2019-03-01T09:51:15.959Z,40.86
2019-03-01T09:53:45.559Z,40.83
2019-03-01T09:56:14.972Z,40.74
2019-03-01T09:58:44.458Z,39.78
2019-03-01T10:01:16.194Z,39.94
2019-03-01T10:03:46.147Z,38.90
2019-03-01T10:06:15.632Z,38.21
2019-03-01T10:08:45.198Z,38.22
2019-03-01T10:11:14.725Z,37.90
2019-03-01T10:13:44.214Z,37.22
2019-03-01T10:16:13.795Z,37.05
2019-03-01T10:18:43.205Z,36.51
2019-03-01T10:21:12.573Z,36.13
2019-03-01T10:23:41.987Z,36.13
2019-03-01T10:26:11.397Z,35.87
2019-03-01T10:28:40.805Z,36.51
2019-03-01T10:31:10.245Z,36.51
2019-03-01T10:33:39.722Z,36.46
2019-03-01T10:36:09.290Z,37.16
2019-03-01T10:38:38.662Z,37.44
2019-03-01T10:41:08.097Z,37.79
2019-03-01T10:43:37.519Z,37.81
2019-03-01T10:46:06.903Z,37.78
2019-03-01T10:48:36.326Z,37.06
2019-03-01T10:51:05.701Z,36.88
2019-03-01T10:53:35.085Z,36.85
2019-03-01T10:56:04.537Z,37.25
2019-03-01T10:58:33.981Z,36.86
2019-03-01T11:01:04.043Z,36.86
2019-03-01T11:03:33.426Z,36.84
2019-03-01T11:06:02.811Z,36.73
2019-03-01T11:08:32.251Z,36.72
2019-03-01T11:11:01.634Z,36.26
2019-03-01T11:13:31.056Z,36.21
2019-03-01T11:16:00.429Z,36.02
2019-03-01T11:18:29.813Z,36.53
2019-03-01T11:20:59.193Z,36.13
2019-03-01T11:23:28.585Z,36.25
2019-03-01T11:25:57.997Z,36.01
2019-03-01T11:28:27.526Z,36.08
2019-03-01T11:30:56.935Z,36.14
2019-03-01T11:33:26.308Z,36.13
2019-03-01T11:35:55.744Z,35.62
2019-03-01T11:38:25.135Z,35.44
2019-03-01T11:40:55.899Z,35.07
2019-03-01T11:43:25.421Z,35.56
2019-03-01T11:45:54.790Z,35.96
2019-03-01T11:48:24.191Z,35.31
2019-03-01T11:50:53.669Z,34.70
2019-03-01T11:53:23.053Z,35.49
2019-03-01T11:55:52.496Z,35.81
2019-03-01T11:58:21.981Z,35.92
2019-03-01T12:00:52.427Z,35.24
2019-03-01T12:03:21.971Z,35.93
2019-03-01T12:05:51.372Z,36.00
2019-03-01T12:08:20.756Z,35.89
2019-03-01T12:10:50.220Z,36.00
2019-03-01T12:13:19.598Z,36.38
2019-03-01T12:15:48.979Z,36.45
2019-03-01T12:18:18.350Z,36.38
2019-03-01T12:20:47.715Z,35.97
2019-03-01T12:23:17.139Z,35.44
2019-03-01T12:25:46.861Z,35.62
2019-03-01T12:28:16.342Z,36.11
2019-03-01T12:30:45.737Z,35.84
2019-03-01T12:33:15.180Z,36.08
2019-03-01T12:35:44.721Z,35.97
2019-03-01T12:38:14.181Z,35.60
2019-03-01T12:40:43.615Z,35.30
2019-03-01T12:43:13.114Z,33.98
2019-03-01T12:45:42.455Z,34.48
2019-03-01T12:48:12.798Z,34.66
2019-03-01T12:50:42.192Z,35.21
2019-03-01T12:53:11.666Z,35.84
2019-03-01T12:55:41.057Z,35.09
2019-03-01T12:58:19.205Z,35.04
2019-03-01T13:00:41.877Z,34.16
2019-03-01T13:03:11.263Z,33.80
2019-03-01T13:05:40.672Z,34.49
2019-03-01T13:08:12.519Z,34.86
2019-03-01T13:10:41.481Z,34.65
2019-03-01T13:13:10.976Z,34.95
2019-03-01T13:15:40.364Z,33.76
2019-03-01T13:18:15.750Z,33.50
2019-03-01T13:20:41.205Z,33.86
2019-03-01T13:23:10.585Z,33.76
2019-03-01T13:25:39.968Z,33.76
2019-03-01T13:28:09.362Z,33.70
2019-03-01T13:30:38.742Z,34.39
2019-03-01T13:33:08.121Z,34.03
2019-03-01T13:35:37.552Z,34.20
2019-03-01T13:38:06.930Z,33.68
2019-03-01T13:40:36.329Z,32.47
2019-03-01T13:43:05.745Z,31.56
2019-03-01T13:45:38.158Z,32.02
2019-03-01T13:48:07.534Z,32.65
2019-03-01T13:50:38.326Z,33.34
2019-03-01T13:53:08.037Z,32.92
2019-03-01T13:55:37.435Z,32.42
2019-03-01T13:58:06.806Z,32.53
2019-03-01T14:00:36.155Z,32.47
2019-03-01T14:03:05.543Z,32.38
2019-03-01T14:05:34.918Z,32.53
2019-03-01T14:08:09.059Z,32.70
2019-03-01T14:10:38.555Z,32.75
2019-03-01T14:13:07.144Z,32.47
2019-03-01T14:15:38.514Z,32.74
2019-03-01T14:18:07.720Z,32.79
2019-03-01T14:20:37.164Z,31.32
2019-03-01T14:23:06.578Z,30.42
2019-03-01T14:25:38.566Z,30.47
2019-03-01T14:28:07.124Z,30.40
2019-03-01T14:30:36.509Z,30.57
2019-03-01T14:33:05.872Z,31.15
2019-03-01T14:35:35.253Z,31.45
2019-03-01T14:38:04.812Z,30.68
2019-03-01T14:40:34.183Z,30.40
2019-03-01T14:43:03.835Z,30.40
2019-03-01T14:45:33.191Z,31.20
2019-03-01T14:48:05.046Z,31.55
2019-03-01T14:50:34.775Z,32.42
2019-03-01T14:53:04.245Z,32.56
2019-03-01T14:55:38.530Z,32.80
2019-03-01T14:58:15.168Z,32.82
2019-03-01T15:01:29.727Z,33.11
2019-03-01T15:03:59.096Z,32.48
2019-03-01T15:06:28.487Z,32.18
2019-03-01T15:08:57.887Z,31.86
2019-03-01T15:11:27.258Z,31.76
2019-03-01T15:13:57.157Z,31.76
2019-03-01T15:16:26.586Z,31.97
2019-03-01T15:18:55.984Z,32.14
2019-03-01T15:21:25.367Z,32.57
2019-03-01T15:23:56.269Z,32.69
2019-03-01T15:26:26.592Z,32.91
2019-03-01T15:28:58.901Z,33.08
2019-03-01T15:31:28.488Z,33.40
2019-03-01T15:33:57.864Z,33.58
2019-03-01T15:36:27.214Z,34.08
2019-03-01T15:38:56.572Z,34.84
2019-03-01T15:41:26.751Z,35.12
2019-03-01T15:43:56.133Z,35.19
2019-03-01T15:46:25.481Z,35.20
2019-03-01T15:48:54.847Z,35.36
2019-03-01T15:51:24.208Z,35.75
2019-03-01T15:53:53.605Z,36.32
2019-03-01T15:56:23.015Z,36.46
2019-03-01T15:58:52.418Z,36.52
2019-03-01T16:01:21.818Z,36.68
2019-03-01T16:03:54.096Z,37.33
2019-03-01T16:06:22.441Z,37.33
2019-03-01T16:08:51.769Z,37.33
2019-03-01T16:11:21.155Z,37.93
2019-03-01T16:13:50.631Z,38.32
2019-03-01T16:16:20.052Z,38.57
2019-03-01T16:18:49.502Z,38.86
2019-03-01T16:21:18.931Z,39.26
2019-03-01T16:23:48.370Z,39.57
2019-03-01T16:26:17.779Z,39.84
2019-03-01T16:28:47.365Z,39.98
2019-03-01T16:31:16.776Z,40.43
2019-03-01T16:33:46.130Z,40.84
2019-03-01T16:36:26.473Z,40.87
2019-03-01T16:38:56.366Z,41.16
2019-03-01T16:41:25.702Z,41.61
2019-03-01T16:43:55.109Z,41.70
2019-03-01T16:46:24.495Z,41.85
2019-03-01T16:48:53.884Z,42.10
2019-03-01T16:51:23.238Z,42.19
2019-03-01T16:53:52.632Z,42.57
2019-03-01T16:56:22.065Z,42.64
2019-03-01T16:58:51.496Z,42.81
2019-03-01T17:01:20.880Z,43.18
2019-03-01T17:03:52.732Z,43.10
2019-03-01T17:06:21.417Z,43.38
2019-03-01T17:08:50.815Z,43.36
2019-03-01T17:11:20.181Z,43.34
2019-03-01T17:13:49.589Z,43.04
2019-03-01T17:16:20.481Z,42.84
2019-03-01T17:18:50.101Z,42.80
2019-03-01T17:21:19.518Z,42.99
2019-03-01T17:23:48.898Z,42.73
2019-03-01T17:26:18.494Z,42.54
2019-03-01T17:28:49.813Z,42.35
2019-03-01T17:31:19.469Z,42.54
2019-03-01T17:33:50.029Z,42.47
2019-03-01T17:36:19.533Z,42.42
2019-03-01T17:38:48.911Z,42.79
2019-03-01T17:41:18.266Z,42.48
2019-03-01T17:43:47.679Z,42.95
2019-03-01T17:46:17.106Z,42.96
2019-03-01T17:48:46.530Z,43.13
2019-03-01T17:51:18.260Z,43.48
2019-03-01T17:53:47.258Z,43.43
2019-03-01T17:56:18.584Z,43.75
2019-03-01T17:58:48.001Z,43.89
2019-03-01T18:01:17.384Z,44.03
2019-03-01T18:03:46.758Z,44.21
2019-03-01T18:06:16.798Z,44.37
2019-03-01T18:08:47.377Z,44.49
2019-03-01T18:11:16.738Z,44.81
2019-03-01T18:13:46.138Z,44.91
2019-03-01T18:16:15.608Z,45.00
2019-03-01T18:18:48.757Z,45.05
2019-03-01T18:21:16.074Z,45.18
2019-03-01T18:23:45.458Z,45.35
2019-03-01T18:26:14.814Z,45.67
2019-03-01T18:28:44.243Z,45.74
2019-03-01T18:31:13.600Z,45.99
2019-03-01T18:33:43.002Z,45.72
2019-03-01T18:36:12.384Z,45.95
2019-03-01T18:38:41.761Z,46.05
2019-03-01T18:41:11.549Z,46.17
2019-03-01T18:43:40.940Z,46.44
2019-03-01T18:46:10.410Z,46.38
2019-03-01T18:48:40.547Z,46.58
2019-03-01T18:51:10.934Z,46.51
2019-03-01T18:53:40.335Z,46.62
2019-03-01T18:56:09.831Z,47.05
2019-03-01T18:58:39.199Z,46.89
2019-03-01T19:01:11.695Z,46.79
2019-03-01T19:03:41.524Z,47.03
2019-03-01T19:06:12.825Z,47.37
2019-03-01T19:08:42.041Z,47.64
2019-03-01T19:11:11.469Z,47.41
2019-03-01T19:13:40.835Z,47.56
2019-03-01T19:16:10.576Z,48.13
2019-03-01T19:18:42.138Z,48.08
2019-03-01T19:21:13.888Z,48.09
2019-03-01T19:23:42.153Z,48.25
2019-03-01T19:26:11.525Z,48.27
2019-03-01T19:28:40.944Z,48.44
2019-03-01T19:31:10.301Z,48.37
2019-03-01T19:33:41.635Z,48.41
2019-03-01T19:36:10.868Z,48.30
2019-03-01T19:38:40.245Z,48.25
2019-03-01T19:41:09.727Z,48.28
2019-03-01T19:43:41.666Z,48.48
2019-03-01T19:46:12.582Z,48.80
2019-03-01T19:48:41.389Z,48.51
2019-03-01T19:51:10.747Z,48.81
2019-03-01T19:53:40.116Z,48.50
2019-03-01T19:56:09.489Z,48.62
2019-03-01T19:58:38.954Z,48.75
2019-03-01T20:01:08.354Z,48.87
2019-03-01T20:03:37.687Z,48.81
2019-03-01T20:06:07.869Z,48.87
2019-03-01T20:08:38.258Z,48.82
2019-03-01T20:11:07.605Z,48.90
2019-03-01T20:13:36.967Z,48.81
2019-03-01T20:16:06.394Z,48.62
2019-03-01T20:18:35.766Z,48.44
2019-03-01T20:21:05.869Z,48.62
2019-03-01T20:23:36.320Z,48.20
2019-03-01T20:26:05.693Z,47.99
2019-03-01T20:28:35.070Z,47.90
2019-03-01T20:31:04.930Z,47.73
2019-03-01T20:33:35.251Z,47.49
2019-03-01T20:36:05.193Z,47.35
2019-03-01T20:38:37.017Z,47.53
2019-03-01T20:41:05.683Z,47.41
2019-03-01T20:46:03.949Z,47.21
2019-03-01T20:48:33.578Z,47.17
2019-03-01T20:51:02.968Z,47.14
2019-03-01T20:53:32.421Z,47.04
2019-03-01T20:56:01.820Z,47.07
2019-03-01T20:58:31.279Z,46.91
2019-03-01T21:01:02.012Z,46.92
2019-03-01T21:03:31.695Z,46.87
2019-03-01T21:06:01.766Z,47.13
2019-03-01T21:08:32.161Z,47.28
2019-03-01T21:11:01.660Z,47.35
2019-03-01T21:13:31.013Z,47.96
2019-03-01T21:16:00.405Z,48.71
2019-03-01T21:18:30.824Z,49.12
2019-03-01T21:21:00.864Z,49.62
2019-03-01T21:23:30.277Z,49.96
2019-03-01T21:25:59.663Z,50.27
2019-03-01T21:28:29.209Z,50.38
2019-03-01T21:30:59.002Z,50.44
2019-03-01T21:33:29.317Z,50.92
2019-03-01T21:35:58.679Z,51.23
2019-03-01T21:38:28.054Z,51.45
2019-03-01T21:40:57.455Z,51.97
2019-03-01T21:43:26.827Z,51.81
2019-03-01T21:45:58.968Z,51.96
2019-03-01T21:48:27.286Z,52.20
2019-03-01T21:50:56.628Z,52.42
2019-03-01T21:53:26.169Z,52.56
2019-03-01T21:55:55.530Z,52.62
2019-03-01T21:58:24.943Z,52.75
2019-03-01T22:00:54.370Z,52.71
2019-03-01T22:03:24.843Z,52.65
2019-03-01T22:05:54.850Z,52.62
2019-03-01T22:08:24.246Z,52.30
2019-03-01T22:10:53.691Z,51.49
2019-03-01T22:13:23.027Z,51.31
2019-03-01T22:15:52.390Z,51.62
2019-03-01T22:18:23.613Z,51.69
2019-03-01T22:20:52.874Z,51.11
2019-03-01T22:23:22.237Z,50.85
2019-03-01T22:25:51.660Z,50.84
2019-03-01T22:28:21.338Z,51.24
2019-03-01T22:30:50.839Z,50.99
2019-03-01T22:33:20.777Z,51.04
2019-03-01T22:35:51.387Z,51.32
2019-03-01T22:38:20.749Z,51.49
2019-03-01T22:40:50.174Z,51.54
2019-03-01T22:43:22.546Z,51.34
2019-03-01T22:45:50.678Z,51.29
2019-03-01T22:48:20.051Z,51.43
2019-03-01T22:50:49.434Z,51.66
2019-03-01T22:53:18.851Z,51.64
2019-03-01T22:55:48.238Z,51.62
2019-03-01T22:58:17.666Z,51.73
2019-03-01T23:01:17.355Z,52.20
2019-03-01T23:03:54.908Z,52.11
2019-03-01T23:06:22.920Z,52.61
2019-03-01T23:08:52.307Z,52.74
2019-03-01T23:11:21.673Z,53.00
2019-03-01T23:13:52.788Z,53.95
2019-03-01T23:16:22.098Z,54.19
2019-03-01T23:18:56.594Z,54.06
2019-03-01T23:21:22.529Z,54.03
2019-03-01T23:23:51.894Z,54.38
2019-03-01T23:26:21.540Z,54.22
2019-03-01T23:28:51.806Z,54.25
2019-03-01T23:31:21.186Z,54.10
2019-03-01T23:33:50.559Z,54.23
2019-03-01T23:36:20.256Z,54.37
2019-03-01T23:38:50.206Z,54.33
2019-03-01T23:41:20.607Z,54.42
2019-03-01T23:43:49.979Z,54.52
2019-03-01T23:46:19.366Z,54.49
2019-03-01T23:48:48.993Z,54.64
2019-03-01T23:51:19.108Z,54.76
2019-03-01T23:53:48.482Z,55.03
2019-03-01T23:56:17.824Z,55.47
2019-03-01T23:58:47.988Z,55.65
